createdAt,value
2023-12-22T00:00:20.733Z,98.27
2023-12-22T00:02:47.327Z,98.74
2023-12-22T00:05:14.015Z,98.67
2023-12-22T00:07:40.758Z,98.45
2023-12-22T00:10:07.796Z,98.72
2023-12-22T00:12:34.321Z,97.93
2023-12-22T00:15:01.178Z,98.77
2023-12-22T00:17:28.010Z,98.18
2023-12-22T00:19:56.438Z,98.13
2023-12-22T00:22:22.960Z,98.71
2023-12-22T00:24:49.678Z,98.55
2023-12-22T00:27:16.147Z,98.41
2023-12-22T00:29:42.750Z,98.73
2023-12-22T00:32:10.927Z,98.80
2023-12-22T00:34:37.549Z,98.66
2023-12-22T00:37:05.748Z,98.17
2023-12-22T00:39:32.355Z,98.33
2023-12-22T00:41:59.221Z,98.20
2023-12-22T00:44:28.648Z,98.99
2023-12-22T00:46:55.486Z,99.06
2023-12-22T00:49:23.176Z,98.97
2023-12-22T00:51:49.930Z,98.45
2023-12-22T00:54:16.680Z,97.69
2023-12-22T00:56:43.201Z,97.54
2023-12-22T00:59:12.034Z,97.78
2023-12-22T01:01:39.081Z,97.81
2023-12-22T01:04:05.633Z,98.25
2023-12-22T01:06:32.771Z,98.12
2023-12-22T01:08:59.369Z,98.47
2023-12-22T01:11:25.763Z,99.05
2023-12-22T01:13:52.250Z,99.17
2023-12-22T01:16:22.622Z,99.42
2023-12-22T01:18:49.343Z,99.31
2023-12-22T01:21:16.020Z,98.94
2023-12-22T01:23:42.475Z,99.50
2023-12-22T01:26:09.147Z,99.61
2023-12-22T01:28:36.139Z,100.00
2023-12-22T01:31:04.496Z,99.93
2023-12-22T01:33:31.059Z,99.86
2023-12-22T01:35:57.757Z,100.00
2023-12-22T01:38:24.259Z,99.30
2023-12-22T01:40:50.813Z,100.00
2023-12-22T01:43:22.845Z,99.67
2023-12-22T01:45:53.477Z,100.00
2023-12-22T01:48:20.175Z,99.17
2023-12-22T01:50:46.905Z,99.84
2023-12-22T01:53:13.553Z,99.24
2023-12-22T01:55:40.287Z,99.44
2023-12-22T01:58:06.923Z,99.54
2023-12-22T02:00:33.403Z,98.93
2023-12-22T02:03:00.319Z,98.74
2023-12-22T02:05:26.878Z,98.56
2023-12-22T02:07:53.653Z,99.65
2023-12-22T02:10:20.327Z,99.38
2023-12-22T02:12:47.190Z,99.37
2023-12-22T02:15:13.788Z,99.26
2023-12-22T02:17:49.512Z,99.43
2023-12-22T02:20:16.230Z,99.29
2023-12-22T02:22:42.893Z,99.21
2023-12-22T02:25:09.346Z,99.18
2023-12-22T02:27:49.415Z,99.32
2023-12-22T02:30:26.571Z,99.11
2023-12-22T02:32:57.311Z,99.16
2023-12-22T02:35:26.483Z,99.39
2023-12-22T02:37:55.195Z,99.63
2023-12-22T02:40:22.667Z,99.16
2023-12-22T02:42:49.583Z,99.68
2023-12-22T02:45:18.486Z,99.29
2023-12-22T02:47:45.828Z,99.47
2023-12-22T02:50:14.983Z,99.28
2023-12-22T02:52:41.545Z,99.49
2023-12-22T02:55:08.553Z,99.02
2023-12-22T02:57:35.377Z,98.81
2023-12-22T03:00:01.974Z,98.58
2023-12-22T03:02:28.632Z,98.77
2023-12-22T03:04:55.134Z,98.83
2023-12-22T03:07:21.889Z,99.20
2023-12-22T03:09:48.307Z,98.71
2023-12-22T03:12:14.988Z,98.78
2023-12-22T03:14:41.639Z,98.95
2023-12-22T03:17:08.221Z,99.08
2023-12-22T03:19:35.123Z,99.24
2023-12-22T03:22:02.508Z,98.67
2023-12-22T03:24:30.313Z,98.41
2023-12-22T03:26:57.343Z,98.28
2023-12-22T03:29:23.832Z,98.58
2023-12-22T03:31:50.651Z,98.97
2023-12-22T03:34:17.290Z,97.92
2023-12-22T03:36:44.022Z,98.70
2023-12-22T03:39:10.550Z,97.83
2023-12-22T03:41:37.230Z,98.70
2023-12-22T03:44:03.719Z,97.84
2023-12-22T03:46:30.286Z,97.58
2023-12-22T03:48:57.075Z,97.91
2023-12-22T03:51:23.633Z,98.33
2023-12-22T03:53:50.271Z,98.23
2023-12-22T03:56:17.035Z,97.72
2023-12-22T03:58:43.700Z,97.78
2023-12-22T04:01:10.275Z,98.28
2023-12-22T04:03:36.937Z,97.78
2023-12-22T04:06:04.871Z,97.41
2023-12-22T04:08:31.606Z,95.59
2023-12-22T04:10:58.111Z,95.98
2023-12-22T04:13:24.915Z,96.76
2023-12-22T04:15:51.380Z,97.06
2023-12-22T04:18:18.068Z,97.47
2023-12-22T04:20:44.641Z,98.22
2023-12-22T04:23:11.296Z,98.46
2023-12-22T04:25:37.778Z,98.31
2023-12-22T04:28:04.534Z,98.19
2023-12-22T04:30:33.453Z,98.49
2023-12-22T04:33:01.818Z,98.37
2023-12-22T04:35:28.378Z,98.77
2023-12-22T04:37:54.810Z,98.50
2023-12-22T04:40:21.698Z,98.79
2023-12-22T04:42:48.181Z,98.15
2023-12-22T04:45:14.758Z,98.57
2023-12-22T04:47:41.496Z,98.95
2023-12-22T04:50:08.452Z,99.38
2023-12-22T04:52:35.237Z,99.43
2023-12-22T04:55:01.831Z,98.60
2023-12-22T04:57:28.331Z,98.67
2023-12-22T04:59:54.774Z,99.33
2023-12-22T05:02:21.293Z,99.10
2023-12-22T05:04:47.751Z,99.05
2023-12-22T05:07:14.334Z,98.65
2023-12-22T05:09:43.276Z,98.40
2023-12-22T05:12:10.764Z,98.49
2023-12-22T05:14:37.330Z,98.70
2023-12-22T05:17:03.979Z,98.28
2023-12-22T05:19:30.621Z,98.23
2023-12-22T05:21:58.006Z,98.21
2023-12-22T05:24:24.537Z,98.12
2023-12-22T05:26:51.151Z,97.80
2023-12-22T05:29:17.693Z,98.06
2023-12-22T05:31:44.202Z,98.57
2023-12-22T05:34:11.402Z,98.53
2023-12-22T05:36:38.651Z,98.38
2023-12-22T05:39:05.127Z,98.15
2023-12-22T05:41:35.326Z,97.50
2023-12-22T05:44:02.160Z,97.82
2023-12-22T05:46:28.773Z,97.68
2023-12-22T05:48:58.942Z,98.25
2023-12-22T05:51:25.695Z,98.33
2023-12-22T05:53:54.790Z,98.39
2023-12-22T05:56:21.836Z,97.86
2023-12-22T05:58:49.893Z,98.10
2023-12-22T06:01:18.046Z,98.37
2023-12-22T06:03:45.331Z,98.10
2023-12-22T06:06:11.800Z,98.59
2023-12-22T06:08:39.252Z,97.95
2023-12-22T06:11:06.682Z,97.71
2023-12-22T06:13:33.471Z,98.24
2023-12-22T06:16:00.431Z,97.68
2023-12-22T06:18:26.983Z,97.31
2023-12-22T06:20:53.670Z,97.58
2023-12-22T06:23:20.120Z,97.61
2023-12-22T06:25:47.541Z,97.61
2023-12-22T06:28:14.216Z,97.84
2023-12-22T06:30:40.696Z,97.35
2023-12-22T06:33:07.329Z,97.64
2023-12-22T06:35:35.117Z,97.46
2023-12-22T06:38:05.108Z,97.60
2023-12-22T06:40:31.834Z,97.24
2023-12-22T06:42:58.311Z,97.86
2023-12-22T06:45:24.809Z,96.98
2023-12-22T06:47:51.800Z,96.94
2023-12-22T06:50:18.736Z,97.58
2023-12-22T06:52:45.242Z,97.23
2023-12-22T06:55:12.286Z,97.14
2023-12-22T06:57:39.918Z,97.93
2023-12-22T07:00:08.084Z,97.89
2023-12-22T07:02:35.835Z,97.05
2023-12-22T07:05:22.199Z,97.31
2023-12-22T07:07:49.647Z,97.27
2023-12-22T07:10:16.308Z,96.82
2023-12-22T07:12:43.849Z,96.77
2023-12-22T07:15:11.441Z,96.52
2023-12-22T07:17:38.232Z,96.79
2023-12-22T07:20:05.368Z,97.35
2023-12-22T07:22:31.806Z,97.28
2023-12-22T07:24:58.889Z,97.09
2023-12-22T07:27:27.847Z,96.40
2023-12-22T07:29:55.412Z,96.84
2023-12-22T07:32:21.838Z,96.55
2023-12-22T07:34:48.540Z,96.46
2023-12-22T07:37:15.084Z,96.45
2023-12-22T07:39:42.791Z,97.00
2023-12-22T07:42:09.421Z,96.87
2023-12-22T07:44:35.894Z,96.83
2023-12-22T07:47:03.865Z,96.53
2023-12-22T07:49:31.377Z,96.97
2023-12-22T07:51:58.900Z,95.95
2023-12-22T07:54:27.089Z,96.94
2023-12-22T07:56:53.757Z,96.76
2023-12-22T07:59:27.246Z,96.72
2023-12-22T08:01:57.940Z,96.40
2023-12-22T08:04:24.534Z,96.02
2023-12-22T08:06:51.352Z,95.90
2023-12-22T08:09:17.945Z,95.75
2023-12-22T08:11:47.777Z,95.50
2023-12-22T08:14:14.446Z,95.37
2023-12-22T08:16:41.139Z,96.21
2023-12-22T08:19:07.751Z,96.12
2023-12-22T08:24:22.677Z,96.67
2023-12-22T08:26:51.325Z,96.40
2023-12-22T08:29:17.962Z,96.38
2023-12-22T08:31:47.791Z,96.61
2023-12-22T08:34:14.414Z,96.42
2023-12-22T08:36:41.153Z,96.10
2023-12-22T08:39:09.204Z,96.27
2023-12-22T08:41:38.734Z,96.28
2023-12-22T08:44:06.978Z,96.52
2023-12-22T08:46:34.356Z,96.69
2023-12-22T08:49:01.189Z,96.89
2023-12-22T08:51:28.261Z,96.39
2023-12-22T08:53:58.384Z,96.69
2023-12-22T08:56:25.519Z,96.09
2023-12-22T08:58:53.215Z,97.04
2023-12-22T09:01:20.460Z,96.77
2023-12-22T09:03:47.656Z,96.91
2023-12-22T09:06:18.277Z,96.53
2023-12-22T09:08:45.527Z,96.92
2023-12-22T09:11:13.553Z,96.45
2023-12-22T09:13:40.429Z,96.37
2023-12-22T09:16:07.094Z,96.54
2023-12-22T09:18:33.768Z,96.45
2023-12-22T09:21:00.634Z,96.56
2023-12-22T09:23:27.214Z,96.25
2023-12-22T09:25:54.217Z,95.73
2023-12-22T09:28:20.758Z,95.81
2023-12-22T09:30:47.272Z,96.26
2023-12-22T09:33:15.131Z,95.54
2023-12-22T09:35:43.073Z,96.67
2023-12-22T09:38:13.432Z,95.68
2023-12-22T09:40:40.853Z,95.80
2023-12-22T09:43:09.489Z,95.87
2023-12-22T09:45:37.644Z,95.66
2023-12-22T09:48:06.180Z,95.87
2023-12-22T09:50:33.755Z,96.37
2023-12-22T09:53:00.608Z,96.03
2023-12-22T09:55:28.473Z,95.46
2023-12-22T09:57:56.830Z,95.65
2023-12-22T10:00:24.787Z,95.17
2023-12-22T10:02:51.405Z,96.12
2023-12-22T10:05:19.507Z,95.89
2023-12-22T10:07:48.783Z,95.11
2023-12-22T10:10:17.912Z,95.60
2023-12-22T10:12:46.046Z,95.29
2023-12-22T10:15:14.042Z,94.74
2023-12-22T10:17:41.672Z,95.50
2023-12-22T10:20:09.516Z,94.72
2023-12-22T10:22:36.094Z,94.90
2023-12-22T10:25:04.045Z,95.35
2023-12-22T10:27:30.710Z,94.95
2023-12-22T10:29:57.987Z,94.08
2023-12-22T10:32:24.571Z,94.99
2023-12-22T10:34:54.630Z,94.93
2023-12-22T10:37:22.671Z,94.29
2023-12-22T10:39:53.219Z,94.06
2023-12-22T10:42:19.806Z,94.25
2023-12-22T10:44:46.974Z,93.81
2023-12-22T10:47:14.472Z,93.93
2023-12-22T10:49:41.018Z,93.68
2023-12-22T10:52:07.705Z,94.18
2023-12-22T10:54:36.909Z,93.81
2023-12-22T10:57:03.595Z,94.29
2023-12-22T10:59:32.402Z,93.29
2023-12-22T11:02:00.525Z,93.70
2023-12-22T11:04:35.323Z,93.80
2023-12-22T11:07:04.841Z,92.71
2023-12-22T11:09:33.841Z,93.45
2023-12-22T11:12:03.011Z,93.44
2023-12-22T11:14:32.060Z,92.77
2023-12-22T11:17:02.535Z,93.45
2023-12-22T11:19:31.566Z,92.76
2023-12-22T11:21:59.672Z,93.04
2023-12-22T11:24:29.143Z,92.64
2023-12-22T11:26:58.734Z,92.60
2023-12-22T11:29:27.229Z,93.17
2023-12-22T11:31:57.180Z,93.11
2023-12-22T11:34:25.731Z,92.90
2023-12-22T11:36:54.273Z,92.83
2023-12-22T11:39:20.704Z,92.92
2023-12-22T11:41:50.096Z,92.41
2023-12-22T11:44:17.004Z,92.06
2023-12-22T11:46:43.584Z,92.61
2023-12-22T11:49:11.765Z,92.15
2023-12-22T11:51:40.104Z,92.67
2023-12-22T11:54:48.938Z,92.85
2023-12-22T11:57:36.326Z,92.18
2023-12-22T12:00:10.429Z,92.18
2023-12-22T12:02:40.211Z,92.90
2023-12-22T12:05:09.438Z,92.25
2023-12-22T12:07:50.224Z,92.83
2023-12-22T12:10:36.662Z,92.70
2023-12-22T12:13:13.121Z,92.58
2023-12-22T12:15:40.010Z,92.73
2023-12-22T12:18:07.174Z,92.20
2023-12-22T12:20:34.421Z,92.07
2023-12-22T12:23:04.575Z,92.50
2023-12-22T12:25:36.710Z,92.03
2023-12-22T12:28:07.724Z,92.43
2023-12-22T12:30:35.810Z,91.76
2023-12-22T12:33:10.238Z,91.91
2023-12-22T12:35:42.952Z,91.54
2023-12-22T12:38:12.644Z,92.48
2023-12-22T12:40:42.044Z,91.57
2023-12-22T12:43:09.162Z,92.50
2023-12-22T12:45:35.822Z,92.32
2023-12-22T12:48:05.647Z,92.38
2023-12-22T12:50:34.489Z,92.13
2023-12-22T12:53:01.652Z,91.76
2023-12-22T12:55:28.541Z,91.33
2023-12-22T12:57:56.727Z,91.23
2023-12-22T13:00:27.690Z,91.91
2023-12-22T13:03:01.045Z,91.68
2023-12-22T13:05:27.713Z,92.21
2023-12-22T13:08:08.840Z,92.31
2023-12-22T13:10:35.859Z,91.77
2023-12-22T13:13:02.392Z,91.82
2023-12-22T13:15:28.986Z,91.63
2023-12-22T13:17:56.148Z,92.19
2023-12-22T13:20:23.751Z,91.43
2023-12-22T13:22:50.670Z,91.25
2023-12-22T13:25:17.962Z,91.26
2023-12-22T13:27:48.632Z,91.19
2023-12-22T13:30:39.839Z,91.49
2023-12-22T13:33:06.560Z,90.56
2023-12-22T13:35:35.767Z,90.41
2023-12-22T13:38:07.696Z,90.35
2023-12-22T13:40:35.271Z,90.04
2023-12-22T13:43:03.417Z,90.91
2023-12-22T13:45:31.875Z,89.83
2023-12-22T13:48:01.940Z,89.96
2023-12-22T13:50:28.574Z,90.51
2023-12-22T13:52:55.147Z,90.37
2023-12-22T13:55:25.677Z,89.86
2023-12-22T13:58:04.961Z,89.54
2023-12-22T14:00:32.764Z,90.16
2023-12-22T14:02:59.914Z,90.86
2023-12-22T14:05:29.798Z,89.61
2023-12-22T14:07:57.610Z,89.50
2023-12-22T14:10:24.326Z,89.15
2023-12-22T14:12:50.907Z,89.34
2023-12-22T14:15:17.371Z,89.52
2023-12-22T14:17:44.093Z,90.42
2023-12-22T14:20:11.650Z,89.23
2023-12-22T14:22:39.185Z,89.17
2023-12-22T14:25:06.730Z,90.14
2023-12-22T14:27:33.425Z,89.72
2023-12-22T14:29:59.974Z,90.28
2023-12-22T14:32:26.467Z,89.23
2023-12-22T14:34:53.408Z,89.60
2023-12-22T14:37:20.992Z,88.97
2023-12-22T14:39:48.094Z,89.10
2023-12-22T14:42:14.785Z,89.78
2023-12-22T14:44:42.616Z,89.28
2023-12-22T14:47:11.973Z,89.01
2023-12-22T14:49:40.570Z,88.93
2023-12-22T14:52:07.244Z,89.24
2023-12-22T14:54:33.728Z,88.83
2023-12-22T14:57:00.286Z,88.83
2023-12-22T14:59:27.161Z,88.65
2023-12-22T15:01:53.642Z,88.44
2023-12-22T15:04:22.234Z,89.01
2023-12-22T15:06:59.992Z,89.01
2023-12-22T15:09:28.017Z,88.61
2023-12-22T15:11:56.190Z,89.24
2023-12-22T15:14:23.374Z,88.48
2023-12-22T15:16:52.171Z,87.98
2023-12-22T15:19:19.103Z,88.41
2023-12-22T15:21:45.736Z,88.70
2023-12-22T15:24:12.170Z,88.06
2023-12-22T15:26:38.772Z,89.14
2023-12-22T15:29:05.557Z,88.17
2023-12-22T15:31:35.462Z,88.47
2023-12-22T15:34:04.141Z,88.38
2023-12-22T15:36:30.914Z,87.62
2023-12-22T15:38:58.137Z,88.78
2023-12-22T15:41:24.549Z,88.02
2023-12-22T15:43:51.094Z,88.46
2023-12-22T15:46:18.282Z,88.63
2023-12-22T15:48:44.827Z,87.96
2023-12-22T15:51:15.405Z,88.03
2023-12-22T15:53:42.539Z,88.07
2023-12-22T15:56:11.905Z,87.72
2023-12-22T15:58:41.286Z,88.55
2023-12-22T16:01:08.153Z,87.62
2023-12-22T16:03:34.699Z,88.47
2023-12-22T16:06:04.539Z,88.19
2023-12-22T16:08:31.078Z,88.18
2023-12-22T16:10:57.584Z,88.28
2023-12-22T16:13:25.797Z,87.43
2023-12-22T16:15:52.290Z,87.92
2023-12-22T16:18:20.393Z,87.09
2023-12-22T16:20:47.074Z,87.01
2023-12-22T16:23:13.559Z,87.42
2023-12-22T16:25:40.027Z,86.92
2023-12-22T16:28:06.525Z,86.65
2023-12-22T16:30:33.042Z,86.83
2023-12-22T16:32:59.650Z,87.59
2023-12-22T16:35:26.150Z,86.64
2023-12-22T16:37:52.586Z,87.08
2023-12-22T16:40:19.036Z,87.81
2023-12-22T16:42:45.677Z,87.02
2023-12-22T16:45:12.180Z,87.30
2023-12-22T16:47:39.530Z,86.51
2023-12-22T16:50:06.986Z,87.08
2023-12-22T16:52:35.313Z,86.40
2023-12-22T16:55:02.025Z,86.98
2023-12-22T16:57:28.736Z,87.15
2023-12-22T16:59:55.252Z,87.13
2023-12-22T17:02:32.180Z,86.65
2023-12-22T17:05:00.883Z,86.65
2023-12-22T17:07:29.717Z,86.60
2023-12-22T17:09:58.746Z,86.20
2023-12-22T17:12:25.354Z,86.56
2023-12-22T17:14:51.793Z,86.69
2023-12-22T17:17:18.428Z,85.97
2023-12-22T17:19:44.927Z,85.58
2023-12-22T17:22:11.556Z,85.30
2023-12-22T17:24:43.903Z,85.91
2023-12-22T17:27:11.388Z,86.13
2023-12-22T17:29:37.836Z,85.84
2023-12-22T17:32:08.447Z,85.50
2023-12-22T17:34:35.568Z,85.59
2023-12-22T17:37:02.989Z,85.62
2023-12-22T17:39:29.515Z,85.48
2023-12-22T17:41:55.971Z,86.18
2023-12-22T17:44:22.494Z,85.49
2023-12-22T17:46:48.947Z,85.73
2023-12-22T17:49:15.392Z,85.33
2023-12-22T17:51:41.788Z,86.13
2023-12-22T17:54:08.663Z,85.73
2023-12-22T17:56:35.302Z,85.75
2023-12-22T17:59:02.201Z,85.10
2023-12-22T18:01:28.768Z,85.10
2023-12-22T18:03:55.537Z,85.79
2023-12-22T18:06:22.844Z,84.76
2023-12-22T18:08:50.113Z,85.03
2023-12-22T18:11:17.104Z,85.27
2023-12-22T18:13:43.875Z,85.10
2023-12-22T18:16:10.410Z,85.36
2023-12-22T18:18:37.558Z,84.45
2023-12-22T18:21:04.432Z,84.58
2023-12-22T18:23:31.063Z,84.76
2023-12-22T18:25:57.528Z,84.15
2023-12-22T18:28:24.732Z,84.37
2023-12-22T18:30:51.964Z,84.62
2023-12-22T18:33:23.230Z,85.30
2023-12-22T18:35:51.068Z,84.42
2023-12-22T18:38:17.641Z,84.02
2023-12-22T18:40:44.334Z,85.13
2023-12-22T18:43:11.745Z,85.10
2023-12-22T18:45:38.205Z,84.24
2023-12-22T18:48:05.168Z,84.81
2023-12-22T18:50:31.686Z,85.13
2023-12-22T18:52:58.332Z,85.22
2023-12-22T18:55:24.864Z,84.00
2023-12-22T18:57:51.739Z,84.88
2023-12-22T19:00:18.483Z,83.97
2023-12-22T19:02:55.911Z,84.11
2023-12-22T19:05:25.927Z,84.67
2023-12-22T19:07:53.029Z,84.03
2023-12-22T19:10:20.122Z,84.45
2023-12-22T19:12:47.963Z,84.05
2023-12-22T19:15:14.649Z,84.86
2023-12-22T19:17:42.474Z,84.64
2023-12-22T19:20:09.402Z,83.38
2023-12-22T19:22:36.174Z,83.97
2023-12-22T19:25:02.736Z,83.62
2023-12-22T19:27:31.413Z,83.90
2023-12-22T19:29:58.458Z,84.41
2023-12-22T19:32:25.563Z,83.52
2023-12-22T19:34:52.321Z,83.56
2023-12-22T19:37:20.113Z,83.47
2023-12-22T19:39:47.227Z,83.68
2023-12-22T19:42:14.048Z,83.43
2023-12-22T19:44:41.042Z,83.83
2023-12-22T19:47:07.669Z,83.74
2023-12-22T19:49:36.328Z,83.91
2023-12-22T19:52:04.081Z,84.10
2023-12-22T19:54:31.152Z,83.97
2023-12-22T19:56:57.635Z,84.24
2023-12-22T19:59:24.135Z,83.84
2023-12-22T20:01:50.755Z,83.67
2023-12-22T20:04:17.446Z,83.84
2023-12-22T20:06:45.424Z,83.03
2023-12-22T20:09:12.217Z,83.39
2023-12-22T20:11:38.741Z,83.09
2023-12-22T20:14:06.683Z,83.55
2023-12-22T20:16:33.353Z,82.75
2023-12-22T20:19:00.616Z,83.49
2023-12-22T20:21:27.320Z,82.80
2023-12-22T20:23:55.315Z,83.59
2023-12-22T20:26:22.177Z,82.86
2023-12-22T20:28:49.113Z,83.53
2023-12-22T20:31:17.120Z,83.38
2023-12-22T20:33:44.117Z,83.18
2023-12-22T20:36:10.646Z,83.49
2023-12-22T20:38:37.069Z,82.34
2023-12-22T20:41:04.639Z,82.11
2023-12-22T20:43:31.401Z,82.70
2023-12-22T20:45:58.033Z,83.18
2023-12-22T20:48:26.010Z,82.08
2023-12-22T20:50:54.093Z,82.37
2023-12-22T20:53:20.802Z,83.18
2023-12-22T20:55:47.421Z,82.13
2023-12-22T20:58:14.075Z,82.85
2023-12-22T21:00:40.611Z,83.13
2023-12-22T21:03:07.163Z,82.27
2023-12-22T21:05:34.322Z,82.54
2023-12-22T21:08:01.038Z,82.23
2023-12-22T21:10:27.832Z,82.66
2023-12-22T21:12:54.356Z,82.41
2023-12-22T21:15:21.757Z,83.32
2023-12-22T21:17:50.738Z,83.28
2023-12-22T21:20:17.572Z,83.44
2023-12-22T21:22:44.564Z,83.08
2023-12-22T21:25:11.288Z,83.17
2023-12-22T21:27:37.863Z,82.53
2023-12-22T21:30:07.332Z,82.27
2023-12-22T21:32:34.134Z,82.69
2023-12-22T21:35:00.762Z,83.00
2023-12-22T21:37:27.481Z,83.42
2023-12-22T21:39:54.141Z,83.46
2023-12-22T21:42:20.876Z,82.90
2023-12-22T21:44:47.480Z,82.78
2023-12-22T21:47:15.014Z,83.70
2023-12-22T21:49:42.004Z,82.65
2023-12-22T21:52:08.651Z,83.31
2023-12-22T21:54:35.463Z,83.31
2023-12-22T21:57:02.019Z,83.69
2023-12-22T21:59:28.481Z,83.90
2023-12-22T22:01:55.126Z,84.06
2023-12-22T22:04:23.596Z,83.01
2023-12-22T22:06:50.659Z,83.42
2023-12-22T22:09:17.179Z,82.83
2023-12-22T22:11:43.911Z,83.65
2023-12-22T22:14:22.377Z,83.00
2023-12-22T22:16:53.210Z,82.63
2023-12-22T22:19:19.992Z,83.06
2023-12-22T22:21:46.650Z,83.38
2023-12-22T22:24:13.147Z,82.47
2023-12-22T22:26:40.810Z,82.50
2023-12-22T22:29:08.399Z,82.08
2023-12-22T22:31:40.050Z,82.24
2023-12-22T22:34:06.584Z,82.23
2023-12-22T22:36:33.188Z,82.25
2023-12-22T22:38:59.698Z,82.69
2023-12-22T22:41:26.180Z,81.64
2023-12-22T22:43:52.683Z,81.69
2023-12-22T22:46:19.264Z,82.61
2023-12-22T22:48:45.840Z,82.44
2023-12-22T22:51:22.296Z,82.39
2023-12-22T22:53:49.376Z,81.45
2023-12-22T22:56:15.840Z,82.12
2023-12-22T22:58:42.616Z,82.03
2023-12-22T23:01:11.360Z,82.08
2023-12-22T23:03:38.257Z,82.40
2023-12-22T23:06:05.753Z,81.43
2023-12-22T23:08:32.219Z,82.06
2023-12-22T23:10:59.218Z,82.12
2023-12-22T23:13:25.799Z,82.10
2023-12-22T23:15:52.842Z,82.00
2023-12-22T23:18:19.808Z,81.64
2023-12-22T23:20:46.469Z,81.38
2023-12-22T23:23:13.012Z,80.87
2023-12-22T23:25:39.477Z,81.86
2023-12-22T23:28:06.187Z,81.57
2023-12-22T23:30:32.820Z,80.98
2023-12-22T23:32:59.281Z,81.50
2023-12-22T23:35:25.881Z,81.19
2023-12-22T23:37:52.872Z,81.60
2023-12-22T23:40:19.565Z,80.73
2023-12-22T23:42:46.092Z,81.24
2023-12-22T23:45:12.531Z,81.94
2023-12-22T23:47:39.186Z,81.00
2023-12-22T23:50:06.369Z,81.98
2023-12-22T23:52:32.873Z,80.54
2023-12-22T23:54:59.434Z,80.42
2023-12-22T23:57:25.999Z,81.07
2023-12-22T23:59:52.441Z,80.80
